createdAt,value
2023-04-24T00:04:50.400Z,13.49
2023-04-24T00:15:16.470Z,13.40
2023-04-24T00:25:42.261Z,13.32
2023-04-24T00:36:09.559Z,13.16
2023-04-24T00:46:35.479Z,13.08
2023-04-24T00:57:02.530Z,13.12
2023-04-24T01:07:29.332Z,13.13
2023-04-24T01:17:54.860Z,13.17
2023-04-24T01:28:21.066Z,13.10
2023-04-24T01:38:47.795Z,12.95
2023-04-24T01:49:13.891Z,12.83
2023-04-24T01:59:39.568Z,12.81
2023-04-24T02:10:06.348Z,12.87
2023-04-24T02:20:35.053Z,12.88
2023-04-24T02:31:01.171Z,13.02
2023-04-24T02:41:35.486Z,13.07
2023-04-24T02:52:01.662Z,13.27
2023-04-24T03:02:27.808Z,13.35
2023-04-24T03:12:56.047Z,13.27
2023-04-24T03:23:21.842Z,13.26
2023-04-24T03:33:47.486Z,13.26
2023-04-24T03:44:13.257Z,13.22
2023-04-24T03:54:39.157Z,13.24
2023-04-24T04:05:05.169Z,13.22
2023-04-24T04:15:31.776Z,13.11
2023-04-24T04:25:57.924Z,13.07
2023-04-24T04:36:25.063Z,13.11
2023-04-24T04:46:51.254Z,13.21
2023-04-24T04:57:17.232Z,13.30
2023-04-24T05:07:43.256Z,13.43
2023-04-24T05:18:09.108Z,13.63
2023-04-24T05:28:34.558Z,13.84
2023-04-24T05:39:00.069Z,14.34
2023-04-24T05:49:26.223Z,15.13
2023-04-24T05:59:52.412Z,16.07
2023-04-24T06:10:18.854Z,16.81
2023-04-24T06:20:44.652Z,17.49
2023-04-24T06:31:10.955Z,18.19
2023-04-24T06:41:37.122Z,18.83
2023-04-24T06:52:02.472Z,19.26
2023-04-24T07:02:28.026Z,19.63
2023-04-24T07:12:55.149Z,19.88
2023-04-24T07:23:21.968Z,20.10
2023-04-24T07:33:47.742Z,20.03
2023-04-24T07:44:13.729Z,19.98
2023-04-24T07:54:39.864Z,19.82
2023-04-24T08:05:06.899Z,19.84
2023-04-24T08:15:33.345Z,20.10
2023-04-24T08:25:59.878Z,20.29
2023-04-24T08:36:36.061Z,20.50
2023-04-24T08:47:11.232Z,20.65
2023-04-24T08:57:41.201Z,20.79
2023-04-24T09:08:09.093Z,20.66
2023-04-24T09:18:36.376Z,20.37
2023-04-24T09:29:03.061Z,20.05
2023-04-24T09:39:29.171Z,19.97
2023-04-24T09:50:01.733Z,19.94
2023-04-24T10:00:30.104Z,19.96
2023-04-24T10:10:56.704Z,19.81
2023-04-24T10:21:23.355Z,19.59
2023-04-24T10:31:48.887Z,19.28
2023-04-24T10:42:19.325Z,18.87
2023-04-24T10:52:53.752Z,18.58
2023-04-24T11:03:31.798Z,18.40
2023-04-24T11:14:08.670Z,18.29
2023-04-24T11:24:41.718Z,18.25
2023-04-24T11:35:10.652Z,18.21
2023-04-24T11:45:36.633Z,18.04
2023-04-24T11:56:07.028Z,17.75
2023-04-24T12:06:32.733Z,17.37
2023-04-24T12:16:58.652Z,17.22
2023-04-24T12:27:24.968Z,17.04
2023-04-24T12:37:51.823Z,16.96
2023-04-24T12:48:17.716Z,16.81
2023-04-24T12:58:43.755Z,16.57
2023-04-24T13:09:10.920Z,16.26
2023-04-24T13:19:41.481Z,16.00
2023-04-24T13:30:08.790Z,15.86
2023-04-24T13:40:34.475Z,15.66
2023-04-24T13:51:00.091Z,15.53
2023-04-24T14:01:26.080Z,15.33
2023-04-24T14:11:52.348Z,15.18
2023-04-24T14:22:18.941Z,15.11
2023-04-24T14:32:44.737Z,14.96
2023-04-24T14:43:11.097Z,14.88
2023-04-24T14:53:37.888Z,14.88
2023-04-24T15:04:03.767Z,14.89
2023-04-24T15:14:29.746Z,14.93
2023-04-24T15:24:55.817Z,14.92
2023-04-24T15:35:21.612Z,14.87
2023-04-24T15:45:48.046Z,14.83
2023-04-24T15:56:13.755Z,14.93
2023-04-24T16:06:39.715Z,14.94
2023-04-24T16:17:05.537Z,14.80
2023-04-24T16:27:31.800Z,14.64
2023-04-24T16:37:57.258Z,14.52
2023-04-24T16:48:23.129Z,14.45
2023-04-24T16:58:49.595Z,14.61
2023-04-24T17:09:16.172Z,14.78
2023-04-24T17:19:42.559Z,14.89
2023-04-24T17:30:11.630Z,15.05
2023-04-24T17:40:39.448Z,15.15
2023-04-24T17:51:05.230Z,15.17
2023-04-24T18:01:31.185Z,15.21
2023-04-24T18:11:57.884Z,15.27
2023-04-24T18:22:23.613Z,15.31
2023-04-24T18:32:49.414Z,15.30
2023-04-24T18:43:15.339Z,15.13
2023-04-24T18:53:41.491Z,14.87
2023-04-24T19:04:07.543Z,14.67
2023-04-24T19:14:33.542Z,14.66
2023-04-24T19:25:00.411Z,14.65
2023-04-24T19:35:26.257Z,14.56
2023-04-24T19:45:53.575Z,14.56
2023-04-24T19:56:19.404Z,14.59
2023-04-24T20:06:45.167Z,14.58
2023-04-24T20:17:11.408Z,14.65
2023-04-24T20:27:37.281Z,14.64
2023-04-24T20:38:03.365Z,14.52
2023-04-24T20:48:29.175Z,14.34
2023-04-24T20:58:57.205Z,14.29
2023-04-24T21:09:23.268Z,14.17
2023-04-24T21:19:48.999Z,14.04
2023-04-24T21:30:15.837Z,13.71
2023-04-24T21:40:41.786Z,13.50
2023-04-24T21:51:07.565Z,13.37
2023-04-24T22:01:34.419Z,13.21
2023-04-24T22:12:00.120Z,13.16
2023-04-24T22:22:25.908Z,13.06
2023-04-24T22:32:51.896Z,12.94
2023-04-24T22:43:18.552Z,12.86
2023-04-24T22:53:44.649Z,12.79
2023-04-24T23:04:10.632Z,12.83
2023-04-24T23:14:36.599Z,12.77
2023-04-24T23:25:02.490Z,12.79
2023-04-24T23:35:28.249Z,12.90
2023-04-24T23:45:53.941Z,13.10
2023-04-24T23:56:20.126Z,13.16
